createdAt,value
2019-01-18T00:01:46.436Z,86.60
2019-01-18T00:04:13.378Z,86.10
2019-01-18T00:06:40.353Z,86.30
2019-01-18T00:09:07.313Z,85.50
2019-01-18T00:11:34.243Z,87.30
2019-01-18T00:14:01.221Z,86.20
2019-01-18T00:16:28.152Z,86.50
2019-01-18T00:18:55.097Z,85.60
2019-01-18T00:21:22.052Z,86.20
2019-01-18T00:23:49.004Z,85.30
2019-01-18T00:26:16.036Z,85.50
2019-01-18T00:28:43.008Z,85.90
2019-01-18T00:31:09.950Z,85.70
2019-01-18T00:33:36.900Z,84.90
2019-01-18T00:36:03.875Z,85.20
2019-01-18T00:38:30.820Z,85.20
2019-01-18T00:40:57.752Z,85.50
2019-01-18T00:43:24.720Z,86.30
2019-01-18T00:45:51.668Z,86.20
2019-01-18T00:48:18.626Z,86.20
2019-01-18T00:50:45.580Z,85.80
2019-01-18T00:53:12.525Z,86.60
2019-01-18T00:55:40.865Z,86.90
2019-01-18T00:58:07.824Z,84.90
2019-01-18T01:00:34.764Z,85.10
2019-01-18T01:03:01.693Z,84.50
2019-01-18T01:05:28.622Z,85.30
2019-01-18T01:07:55.585Z,85.40
2019-01-18T01:10:22.539Z,86.70
2019-01-18T01:12:49.483Z,85.40
2019-01-18T01:15:16.646Z,85.40
2019-01-18T01:17:43.549Z,85.40
2019-01-18T01:20:11.702Z,86.70
2019-01-18T01:22:38.633Z,84.80
2019-01-18T01:25:05.933Z,84.70
2019-01-18T01:27:32.902Z,84.90
2019-01-18T01:29:59.837Z,84.70
2019-01-18T01:32:26.776Z,84.80
2019-01-18T01:34:53.727Z,85.40
2019-01-18T01:37:20.689Z,84.70
2019-01-18T01:39:47.636Z,84.90
2019-01-18T01:42:14.584Z,84.60
2019-01-18T01:44:41.540Z,85.40
2019-01-18T01:47:08.469Z,85.10
2019-01-18T01:49:35.439Z,85.10
2019-01-18T01:52:02.371Z,85.00
2019-01-18T01:54:29.325Z,85.10
2019-01-18T01:56:57.583Z,85.40
2019-01-18T01:59:24.526Z,85.00
2019-01-18T02:01:51.463Z,85.20
2019-01-18T02:04:18.419Z,84.50
2019-01-18T02:06:45.342Z,84.40
2019-01-18T02:09:12.271Z,84.60
2019-01-18T02:11:39.243Z,84.90
2019-01-18T02:14:06.197Z,84.50
2019-01-18T02:16:33.144Z,84.40
2019-01-18T02:19:00.103Z,85.30
2019-01-18T02:21:27.029Z,85.00
2019-01-18T02:23:53.968Z,85.30
2019-01-18T02:26:20.907Z,85.20
2019-01-18T02:28:47.857Z,85.00
2019-01-18T02:31:14.783Z,85.70
2019-01-18T02:33:41.728Z,85.40
2019-01-18T02:36:08.658Z,85.40
2019-01-18T02:38:35.615Z,84.40
2019-01-18T02:41:02.559Z,85.00
2019-01-18T02:43:29.522Z,84.90
2019-01-18T02:45:56.456Z,84.50
2019-01-18T02:48:23.416Z,85.60
2019-01-18T02:50:50.341Z,84.60
2019-01-18T02:53:17.267Z,84.30
2019-01-18T02:55:44.219Z,83.90
2019-01-18T02:58:11.453Z,84.20
2019-01-18T03:00:38.419Z,84.10
2019-01-18T03:03:05.376Z,83.70
2019-01-18T03:05:32.311Z,84.10
2019-01-18T03:07:59.233Z,83.70
2019-01-18T03:10:27.949Z,83.40
2019-01-18T03:12:54.876Z,83.20
2019-01-18T03:15:21.870Z,82.60
2019-01-18T03:17:48.816Z,82.50
2019-01-18T03:20:15.880Z,82.70
2019-01-18T03:22:42.812Z,82.90
2019-01-18T03:25:14.114Z,83.20
2019-01-18T03:27:41.048Z,82.80
2019-01-18T03:30:19.185Z,83.50
2019-01-18T03:32:38.023Z,83.70
2019-01-18T03:35:06.750Z,83.50
2019-01-18T03:37:33.680Z,84.20
2019-01-18T03:40:00.641Z,84.90
2019-01-18T03:42:27.584Z,85.30
2019-01-18T03:44:54.502Z,85.50
2019-01-18T03:47:21.454Z,86.50
2019-01-18T03:49:48.383Z,86.10
2019-01-18T03:52:15.319Z,86.70
2019-01-18T03:54:42.271Z,86.40
2019-01-18T03:57:09.206Z,86.80
2019-01-18T03:59:36.352Z,86.80
2019-01-18T04:02:03.365Z,86.70
2019-01-18T04:04:30.326Z,87.00
2019-01-18T04:06:57.373Z,87.00
2019-01-18T04:09:24.332Z,87.40
2019-01-18T04:11:51.265Z,87.10
2019-01-18T04:14:18.207Z,87.20
2019-01-18T04:16:45.155Z,87.20
2019-01-18T04:19:12.088Z,86.70
2019-01-18T04:21:39.051Z,87.10
2019-01-18T04:24:06.020Z,86.10
2019-01-18T04:26:32.947Z,86.60
2019-01-18T04:28:59.879Z,87.00
2019-01-18T04:31:26.829Z,86.90
2019-01-18T04:33:53.766Z,86.40
2019-01-18T04:36:20.697Z,86.50
2019-01-18T04:38:47.664Z,86.60
2019-01-18T04:41:14.600Z,87.30
2019-01-18T04:43:41.531Z,86.40
2019-01-18T04:46:08.483Z,86.00
2019-01-18T04:48:35.413Z,85.70
2019-01-18T04:51:02.368Z,85.70
2019-01-18T04:53:29.318Z,85.40
2019-01-18T04:55:56.247Z,85.40
2019-01-18T04:58:23.185Z,85.30
2019-01-18T05:00:50.500Z,85.00
2019-01-18T05:03:17.442Z,84.90
2019-01-18T05:05:44.364Z,84.90
2019-01-18T05:08:11.309Z,85.20
2019-01-18T05:10:38.261Z,85.00
2019-01-18T05:13:05.182Z,85.10
2019-01-18T05:15:32.463Z,84.90
2019-01-18T05:17:59.416Z,84.90
2019-01-18T05:20:26.338Z,85.60
2019-01-18T05:22:53.304Z,86.70
2019-01-18T05:25:20.230Z,85.90
2019-01-18T05:27:50.450Z,85.40
2019-01-18T05:30:20.213Z,85.80
2019-01-18T05:32:47.131Z,85.40
2019-01-18T05:35:14.067Z,87.50
2019-01-18T05:37:41.029Z,86.50
2019-01-18T05:40:10.334Z,86.20
2019-01-18T05:42:37.265Z,86.10
2019-01-18T05:45:04.768Z,86.40
2019-01-18T05:47:31.697Z,86.40
2019-01-18T05:49:58.629Z,85.90
2019-01-18T05:52:25.605Z,86.10
2019-01-18T05:54:52.541Z,86.60
2019-01-18T05:57:19.575Z,86.80
2019-01-18T05:59:46.528Z,87.10
2019-01-18T06:02:16.331Z,86.70
2019-01-18T06:04:43.275Z,87.10
2019-01-18T06:07:10.237Z,86.70
2019-01-18T06:09:37.182Z,87.10
2019-01-18T06:12:04.137Z,87.30
2019-01-18T06:14:31.127Z,86.60
2019-01-18T06:16:58.064Z,86.20
2019-01-18T06:19:25.032Z,86.00
2019-01-18T06:21:52.008Z,86.10
2019-01-18T06:24:18.962Z,86.80
2019-01-18T06:26:45.894Z,86.20
2019-01-18T06:29:12.839Z,87.70
2019-01-18T06:31:39.792Z,87.40
2019-01-18T06:34:06.757Z,87.50
2019-01-18T06:36:33.703Z,88.00
2019-01-18T06:39:00.656Z,87.00
2019-01-18T06:41:34.075Z,86.80
2019-01-18T06:44:01.015Z,87.40
2019-01-18T06:46:27.952Z,88.80
2019-01-18T06:48:55.434Z,90.40
2019-01-18T06:51:22.396Z,90.30
2019-01-18T06:53:49.339Z,91.00
2019-01-18T06:56:16.278Z,91.80
2019-01-18T06:58:43.230Z,92.60
2019-01-18T07:01:10.176Z,93.00
2019-01-18T07:03:37.598Z,93.50
2019-01-18T07:06:04.655Z,93.30
2019-01-18T07:08:31.608Z,93.40
2019-01-18T07:10:58.549Z,93.40
2019-01-18T07:13:25.524Z,93.50
2019-01-18T07:15:52.461Z,93.60
2019-01-18T07:18:19.388Z,93.60
2019-01-18T07:20:46.356Z,93.90
2019-01-18T07:23:13.284Z,93.60
2019-01-18T07:25:40.275Z,93.30
2019-01-18T07:28:07.235Z,93.70
2019-01-18T07:30:37.540Z,93.60
2019-01-18T07:33:07.224Z,93.70
2019-01-18T07:35:34.219Z,93.50
2019-01-18T07:38:01.148Z,93.10
2019-01-18T07:40:28.076Z,92.70
2019-01-18T07:42:55.054Z,92.40
2019-01-18T07:45:23.811Z,92.30
2019-01-18T07:47:50.765Z,92.30
2019-01-18T07:50:20.090Z,92.50
2019-01-18T07:52:44.648Z,92.50
2019-01-18T07:55:11.587Z,92.20
2019-01-18T07:57:38.538Z,91.90
2019-01-18T08:00:09.989Z,91.90
2019-01-18T08:02:36.921Z,91.50
2019-01-18T08:05:06.363Z,91.30
2019-01-18T08:07:33.298Z,91.20
2019-01-18T08:10:00.249Z,91.10
2019-01-18T08:12:27.201Z,91.30
2019-01-18T08:14:54.142Z,90.90
2019-01-18T08:17:21.109Z,90.50
2019-01-18T08:19:48.086Z,90.80
2019-01-18T08:22:15.033Z,90.60
2019-01-18T08:24:41.979Z,90.90
2019-01-18T08:27:08.970Z,90.70
2019-01-18T08:29:35.916Z,91.00
2019-01-18T08:32:02.869Z,90.80
2019-01-18T08:34:29.902Z,90.30
2019-01-18T08:36:56.969Z,90.80
2019-01-18T08:39:24.040Z,91.10
2019-01-18T08:41:51.158Z,89.40
2019-01-18T08:44:18.205Z,91.20
2019-01-18T08:46:45.285Z,91.20
2019-01-18T08:49:12.348Z,91.60
2019-01-18T08:51:39.388Z,91.90
2019-01-18T08:54:06.433Z,91.30
2019-01-18T08:56:33.497Z,91.70
2019-01-18T08:59:00.589Z,91.80
2019-01-18T09:01:27.668Z,91.90
2019-01-18T09:03:54.736Z,91.80
2019-01-18T09:06:23.160Z,91.50
2019-01-18T09:08:50.276Z,91.50
2019-01-18T09:11:17.400Z,91.70
2019-01-18T09:13:44.463Z,91.80
2019-01-18T09:16:11.572Z,91.40
2019-01-18T09:18:38.599Z,91.80
2019-01-18T09:21:05.625Z,92.10
2019-01-18T09:23:32.730Z,91.80
2019-01-18T09:25:59.833Z,91.50
2019-01-18T09:28:26.890Z,90.90
2019-01-18T09:30:54.024Z,90.70
2019-01-18T09:33:21.093Z,91.10
2019-01-18T09:35:48.135Z,91.20
2019-01-18T09:38:17.978Z,91.20
2019-01-18T09:40:42.760Z,90.80
2019-01-18T09:43:09.863Z,90.70
2019-01-18T09:45:36.852Z,90.80
2019-01-18T09:48:05.353Z,91.20
2019-01-18T09:50:32.404Z,90.20
2019-01-18T09:52:59.797Z,90.40
2019-01-18T09:55:26.742Z,90.60
2019-01-18T09:57:53.768Z,91.00
2019-01-18T10:00:23.149Z,90.20
2019-01-18T10:02:50.144Z,90.30
2019-01-18T10:05:17.280Z,89.10
2019-01-18T10:07:45.727Z,89.80
2019-01-18T10:10:15.071Z,90.20
2019-01-18T10:12:42.119Z,90.30
2019-01-18T10:15:12.282Z,88.60
2019-01-18T10:17:39.349Z,90.20
2019-01-18T10:20:09.349Z,88.60
2019-01-18T10:22:36.442Z,88.70
2019-01-18T10:25:04.284Z,84.30
2019-01-18T10:27:31.390Z,84.20
2019-01-18T10:29:58.428Z,82.90
2019-01-18T10:32:25.524Z,84.20
2019-01-18T10:34:52.600Z,83.40
2019-01-18T10:37:19.733Z,82.70
2019-01-18T10:39:46.818Z,83.80
2019-01-18T10:42:13.897Z,84.10
2019-01-18T10:44:40.953Z,86.00
2019-01-18T10:47:08.063Z,84.30
2019-01-18T10:49:35.092Z,82.70
2019-01-18T10:52:02.126Z,84.30
2019-01-18T10:54:29.189Z,82.20
2019-01-18T10:56:56.337Z,82.70
2019-01-18T10:59:23.354Z,82.40
2019-01-18T11:01:50.454Z,79.20
2019-01-18T11:04:17.517Z,80.20
2019-01-18T11:06:44.685Z,79.50
2019-01-18T11:09:13.372Z,77.50
2019-01-18T11:11:40.508Z,78.80
2019-01-18T11:14:07.614Z,77.30
2019-01-18T11:16:34.685Z,79.20
2019-01-18T11:19:01.737Z,77.30
2019-01-18T11:21:28.855Z,78.60
2019-01-18T11:23:55.943Z,78.90
2019-01-18T11:26:23.028Z,78.00
2019-01-18T11:28:50.116Z,78.00
2019-01-18T11:31:17.290Z,78.20
2019-01-18T11:33:44.386Z,76.70
2019-01-18T11:36:11.457Z,77.00
2019-01-18T11:38:38.567Z,75.50
2019-01-18T11:41:05.590Z,78.00
2019-01-18T11:43:32.642Z,78.20
2019-01-18T11:45:59.661Z,78.00
2019-01-18T11:48:26.708Z,77.90
2019-01-18T11:50:53.721Z,76.60
2019-01-18T11:53:20.809Z,77.90
2019-01-18T11:55:47.914Z,79.00
2019-01-18T11:58:14.974Z,76.50
2019-01-18T12:00:42.053Z,76.60
2019-01-18T12:03:09.152Z,77.10
2019-01-18T12:05:36.225Z,76.30
2019-01-18T12:08:03.213Z,77.00
2019-01-18T12:10:31.156Z,78.30
2019-01-18T12:12:58.170Z,77.70
2019-01-18T12:15:25.338Z,78.30
2019-01-18T12:17:52.386Z,79.00
2019-01-18T12:20:24.249Z,78.60
2019-01-18T12:22:51.320Z,77.80
2019-01-18T12:25:18.399Z,77.80
2019-01-18T12:27:45.491Z,77.50
2019-01-18T12:30:16.742Z,76.90
2019-01-18T12:32:43.781Z,78.60
2019-01-18T12:35:10.838Z,81.20
2019-01-18T12:37:37.937Z,79.40
2019-01-18T12:40:04.996Z,80.00
2019-01-18T12:42:32.121Z,80.30
2019-01-18T12:44:59.257Z,80.30
2019-01-18T12:47:26.296Z,79.60
2019-01-18T12:49:53.398Z,79.30
2019-01-18T12:52:20.527Z,75.70
2019-01-18T12:54:47.591Z,74.80
2019-01-18T12:57:14.618Z,77.90
2019-01-18T12:59:41.710Z,77.70
2019-01-18T13:02:08.801Z,78.80
2019-01-18T13:04:35.930Z,79.50
2019-01-18T13:07:03.028Z,77.80
2019-01-18T13:09:30.069Z,75.30
2019-01-18T13:11:58.946Z,76.90
2019-01-18T13:14:26.032Z,74.80
2019-01-18T13:16:53.098Z,77.90
2019-01-18T13:19:22.178Z,77.10
2019-01-18T13:21:49.301Z,77.80
2019-01-18T13:24:16.342Z,80.10
2019-01-18T13:26:43.518Z,80.70
2019-01-18T13:29:10.582Z,79.60
2019-01-18T13:31:37.634Z,82.00
2019-01-18T13:34:04.740Z,81.00
2019-01-18T13:36:31.788Z,80.30
2019-01-18T13:38:58.861Z,81.00
2019-01-18T13:41:25.960Z,81.90
2019-01-18T13:43:53.070Z,82.20
2019-01-18T13:46:20.157Z,81.00
2019-01-18T13:48:47.221Z,80.60
2019-01-18T13:51:14.286Z,81.70
2019-01-18T13:53:41.356Z,81.10
2019-01-18T13:56:08.413Z,81.80
2019-01-18T13:58:35.496Z,79.20
2019-01-18T14:01:02.581Z,80.80
2019-01-18T14:03:29.611Z,81.00
2019-01-18T14:05:56.788Z,79.20
2019-01-18T14:08:23.853Z,79.70
2019-01-18T14:10:50.945Z,79.70
2019-01-18T14:13:18.270Z,78.30
2019-01-18T14:15:45.352Z,78.70
2019-01-18T14:18:12.426Z,78.50
2019-01-18T14:20:39.587Z,79.60
2019-01-18T14:23:06.706Z,79.10
2019-01-18T14:25:33.801Z,78.70
2019-01-18T14:28:00.882Z,77.30
2019-01-18T14:30:28.025Z,78.40
2019-01-18T14:32:55.852Z,77.20
2019-01-18T14:35:22.330Z,78.40
2019-01-18T14:37:49.420Z,77.10
2019-01-18T14:40:16.542Z,77.60
2019-01-18T14:42:43.669Z,77.10
2019-01-18T14:45:14.030Z,77.20
2019-01-18T14:47:41.252Z,76.40
2019-01-18T14:50:11.564Z,76.70
2019-01-18T14:52:38.617Z,78.00
2019-01-18T14:55:05.774Z,76.90
2019-01-18T14:57:32.912Z,75.90
2019-01-18T15:00:00.004Z,74.80
2019-01-18T15:02:27.057Z,75.70
2019-01-18T15:04:54.141Z,78.00
2019-01-18T15:07:21.182Z,76.20
2019-01-18T15:09:48.250Z,75.80
2019-01-18T15:12:15.361Z,75.80
2019-01-18T15:14:42.649Z,76.40
2019-01-18T15:17:09.704Z,77.00
2019-01-18T15:19:36.834Z,78.10
2019-01-18T15:22:03.869Z,77.30
2019-01-18T15:24:30.949Z,79.40
2019-01-18T15:26:58.025Z,81.20
2019-01-18T15:29:25.072Z,81.10
2019-01-18T15:31:52.161Z,81.30
2019-01-18T15:34:19.250Z,80.40
2019-01-18T15:36:46.316Z,78.90
2019-01-18T15:39:13.456Z,81.50
2019-01-18T15:41:40.521Z,81.00
2019-01-18T15:44:07.666Z,81.40
2019-01-18T15:46:34.751Z,80.90
2019-01-18T15:49:01.926Z,81.50
2019-01-18T15:51:29.012Z,83.00
2019-01-18T15:53:56.083Z,81.80
2019-01-18T15:56:23.167Z,82.10
2019-01-18T15:58:50.224Z,81.30
2019-01-18T16:01:17.322Z,82.70
2019-01-18T16:03:44.521Z,83.60
2019-01-18T16:06:11.612Z,82.80
2019-01-18T16:08:38.658Z,82.60
2019-01-18T16:11:05.700Z,83.40
2019-01-18T16:13:32.800Z,83.90
2019-01-18T16:16:10.513Z,82.60
2019-01-18T16:18:37.608Z,81.70
2019-01-18T16:21:04.755Z,82.70
2019-01-18T16:23:31.853Z,82.00
2019-01-18T16:25:58.893Z,82.50
2019-01-18T16:28:26.064Z,83.20
2019-01-18T16:30:53.127Z,83.00
2019-01-18T16:33:23.480Z,82.00
2019-01-18T16:35:48.081Z,82.10
2019-01-18T16:38:15.193Z,82.90
2019-01-18T16:40:42.253Z,82.00
2019-01-18T16:43:14.102Z,83.00
2019-01-18T16:45:41.272Z,82.70
2019-01-18T16:48:08.330Z,82.40
2019-01-18T16:50:35.390Z,81.60
2019-01-18T16:53:02.493Z,82.30
2019-01-18T16:55:29.618Z,81.90
2019-01-18T16:57:56.724Z,81.00
2019-01-18T17:00:27.661Z,82.00
2019-01-18T17:02:54.744Z,82.80
2019-01-18T17:05:21.777Z,82.70
2019-01-18T17:07:48.908Z,83.90
2019-01-18T17:10:15.945Z,84.70
2019-01-18T17:12:42.972Z,84.70
2019-01-18T17:15:11.113Z,86.60
2019-01-18T17:17:40.650Z,85.00
2019-01-18T17:20:14.031Z,85.20
2019-01-18T17:22:39.913Z,84.60
2019-01-18T17:25:07.101Z,85.90
2019-01-18T17:27:34.209Z,85.50
2019-01-18T17:30:01.434Z,86.50
2019-01-18T17:32:28.526Z,87.00
2019-01-18T17:34:55.549Z,86.30
2019-01-18T17:37:27.818Z,87.10
2019-01-18T17:40:02.990Z,85.20
2019-01-18T17:42:42.739Z,85.80
2019-01-18T17:45:43.658Z,85.60
2019-01-18T17:48:29.619Z,86.20
2019-01-18T17:51:12.486Z,86.30
2019-01-18T17:53:56.021Z,86.90
2019-01-18T17:56:48.360Z,87.10
2019-01-18T17:59:41.697Z,87.10
2019-01-18T18:02:40.508Z,87.30
2019-01-18T18:05:20.476Z,86.80
2019-01-18T18:08:08.493Z,87.40
2019-01-18T18:10:47.134Z,87.70
2019-01-18T18:13:41.740Z,87.70
2019-01-18T18:16:41.146Z,87.60
2019-01-18T18:19:23.389Z,88.20
2019-01-18T18:22:11.847Z,87.80
2019-01-18T18:24:48.724Z,87.70
2019-01-18T18:27:33.805Z,87.30
2019-01-18T18:30:10.859Z,86.60
2019-01-18T18:33:07.755Z,89.30
2019-01-18T18:35:54.369Z,88.10
2019-01-18T18:38:35.782Z,87.90
2019-01-18T18:41:17.787Z,87.90
2019-01-18T18:44:07.871Z,89.50
2019-01-18T18:46:56.161Z,88.60
2019-01-18T18:49:38.325Z,88.30
2019-01-18T18:52:26.527Z,87.90
2019-01-18T18:55:20.146Z,88.40
2019-01-18T18:58:00.620Z,86.50
2019-01-18T19:00:54.272Z,87.40
2019-01-18T19:03:37.950Z,87.50
2019-01-18T19:06:23.834Z,88.00
2019-01-18T19:09:11.948Z,88.10
2019-01-18T19:11:51.796Z,88.60
2019-01-18T19:14:44.290Z,88.20
2019-01-18T19:17:26.199Z,87.00
2019-01-18T19:20:10.486Z,88.90
2019-01-18T19:22:51.073Z,87.60
2019-01-18T19:25:34.763Z,89.10
2019-01-18T19:28:12.013Z,90.20
2019-01-18T19:31:05.428Z,88.70
2019-01-18T19:34:04.552Z,90.20
2019-01-18T19:36:43.874Z,88.40
2019-01-18T19:39:21.757Z,89.60
2019-01-18T19:42:25.610Z,89.20
2019-01-18T19:45:01.317Z,88.30
2019-01-18T19:47:36.332Z,89.00
2019-01-18T19:50:30.098Z,90.00
2019-01-18T19:53:23.445Z,89.00
2019-01-18T19:56:07.889Z,88.90
2019-01-18T19:59:02.521Z,88.70
2019-01-18T20:01:46.836Z,88.80
2019-01-18T20:04:54.936Z,89.60
2019-01-18T20:07:37.094Z,90.00
2019-01-18T20:10:39.502Z,90.10
2019-01-18T20:13:25.312Z,88.50
2019-01-18T20:16:16.357Z,90.40
2019-01-18T20:19:08.821Z,89.70
2019-01-18T20:22:11.367Z,89.70
2019-01-18T20:24:59.128Z,90.20
2019-01-18T20:27:53.028Z,90.30
2019-01-18T20:30:51.649Z,90.20
2019-01-18T20:33:49.191Z,90.20
2019-01-18T20:36:25.009Z,90.20
2019-01-18T20:39:00.429Z,90.20
2019-01-18T20:41:59.503Z,90.40
2019-01-18T20:44:49.593Z,91.00
2019-01-18T20:47:49.769Z,90.80
2019-01-18T20:50:23.537Z,90.80
2019-01-18T20:53:18.964Z,90.60
2019-01-18T20:56:11.437Z,90.60
2019-01-18T20:58:49.088Z,90.70
2019-01-18T21:01:49.885Z,91.00
2019-01-18T21:04:43.971Z,90.40
2019-01-18T21:07:26.348Z,90.90
2019-01-18T21:10:08.129Z,91.00
2019-01-18T21:12:51.453Z,91.00
2019-01-18T21:15:28.406Z,90.40
2019-01-18T21:18:11.185Z,91.00
2019-01-18T21:20:55.144Z,90.90
2019-01-18T21:23:57.032Z,91.00
2019-01-18T21:26:49.382Z,91.00
2019-01-18T21:29:30.642Z,91.10
2019-01-18T21:32:28.027Z,91.10
2019-01-18T21:35:07.077Z,91.10
2019-01-18T21:37:46.056Z,91.20
2019-01-18T21:40:23.578Z,91.20
2019-01-18T21:43:16.564Z,91.10
2019-01-18T21:45:56.499Z,91.10
2019-01-18T21:48:42.270Z,91.10
2019-01-18T21:51:35.470Z,90.90
2019-01-18T21:54:28.987Z,91.00
2019-01-18T21:57:12.165Z,90.90
2019-01-18T21:59:54.288Z,91.60
2019-01-18T22:02:30.788Z,90.80
2019-01-18T22:05:09.292Z,90.60
2019-01-18T22:07:45.614Z,90.40
2019-01-18T22:10:35.886Z,90.40
2019-01-18T22:13:24.797Z,90.30
2019-01-18T22:16:11.178Z,90.20
2019-01-18T22:19:06.825Z,90.00
2019-01-18T22:21:45.544Z,90.00
2019-01-18T22:24:36.813Z,90.30
2019-01-18T22:27:18.219Z,90.30
2019-01-18T22:29:57.308Z,90.30
2019-01-18T22:32:51.515Z,90.20
2019-01-18T22:36:00.556Z,90.00
2019-01-18T22:38:56.895Z,90.10
2019-01-18T22:41:58.491Z,90.40
2019-01-18T22:44:41.952Z,90.60
2019-01-18T22:47:32.016Z,90.60
2019-01-18T22:50:15.540Z,90.40
2019-01-18T22:53:08.222Z,90.60
2019-01-18T22:56:02.706Z,90.80
2019-01-18T22:58:40.832Z,90.50
2019-01-18T23:01:38.918Z,91.20
2019-01-18T23:04:22.412Z,91.00
2019-01-18T23:07:25.156Z,90.70
2019-01-18T23:10:03.893Z,90.50
2019-01-18T23:12:43.536Z,90.30
2019-01-18T23:15:36.049Z,91.70
2019-01-18T23:18:12.686Z,90.70
2019-01-18T23:21:12.526Z,91.40
2019-01-18T23:23:55.702Z,91.00
2019-01-18T23:26:57.323Z,91.30
2019-01-18T23:29:38.857Z,91.00
2019-01-18T23:32:26.227Z,90.80
2019-01-18T23:35:21.421Z,91.50
2019-01-18T23:38:20.123Z,90.90
2019-01-18T23:41:07.878Z,91.20
2019-01-18T23:43:51.570Z,91.30
2019-01-18T23:46:37.768Z,90.50
2019-01-18T23:49:29.440Z,90.60
2019-01-18T23:52:08.025Z,91.30
2019-01-18T23:54:49.567Z,90.50
2019-01-18T23:57:28.766Z,90.70
